createdAt,value
2022-11-13T00:02:10.846Z,280.70
2022-11-13T00:04:38.418Z,217.07
2022-11-13T00:07:06.076Z,184.60
2022-11-13T00:09:33.683Z,84.77
2022-11-13T00:12:02.591Z,158.90
2022-11-13T00:14:30.191Z,113.13
2022-11-13T00:16:57.794Z,249.03
2022-11-13T00:19:25.347Z,616.27
2022-11-13T00:21:54.748Z,132.50
2022-11-13T00:24:22.312Z,380.27
2022-11-13T00:26:49.934Z,757.27
2022-11-13T00:29:18.884Z,448.53
2022-11-13T00:31:46.426Z,414.03
2022-11-13T00:34:41.162Z,416.77
2022-11-13T00:37:01.803Z,445.07
2022-11-13T00:39:29.342Z,365.37
2022-11-13T00:41:56.911Z,319.13
2022-11-13T00:44:25.820Z,274.60
2022-11-13T00:46:53.357Z,343.23
2022-11-13T00:49:20.932Z,200.03
2022-11-13T00:51:48.512Z,251.23
2022-11-13T00:54:16.067Z,381.40
2022-11-13T00:56:43.611Z,690.70
2022-11-13T00:59:11.356Z,696.87
2022-11-13T01:01:40.318Z,574.53
2022-11-13T01:04:07.950Z,723.60
2022-11-13T01:06:35.504Z,294.83
2022-11-13T01:09:03.082Z,612.13
2022-11-13T01:11:31.774Z,505.17
2022-11-13T01:13:59.604Z,584.00
2022-11-13T01:16:28.558Z,469.83
2022-11-13T01:18:57.706Z,455.30
2022-11-13T01:21:27.443Z,431.93
2022-11-13T01:23:56.171Z,178.80
2022-11-13T01:26:26.451Z,257.20
2022-11-13T01:28:54.215Z,260.87
2022-11-13T01:31:24.241Z,286.30
2022-11-13T01:33:52.069Z,110.23
2022-11-13T01:36:22.765Z,193.13
2022-11-13T01:38:50.496Z,106.30
2022-11-13T01:41:23.592Z,220.27
2022-11-13T01:43:52.421Z,44.90
2022-11-13T01:46:28.919Z,244.30
2022-11-13T01:49:02.472Z,224.00
2022-11-13T01:51:34.512Z,291.23
2022-11-13T01:54:06.347Z,487.03
2022-11-13T01:56:33.935Z,267.17
2022-11-13T01:59:06.895Z,313.43
2022-11-13T02:01:34.637Z,371.03
2022-11-13T02:04:02.329Z,249.93
2022-11-13T02:06:34.374Z,259.00
2022-11-13T02:09:02.640Z,220.27
2022-11-13T02:11:30.934Z,213.97
2022-11-13T02:13:59.606Z,388.13
2022-11-13T02:16:27.879Z,200.93
2022-11-13T02:18:56.314Z,271.40
2022-11-13T02:21:32.714Z,307.13
2022-11-13T02:24:24.487Z,130.30
2022-11-13T02:26:55.878Z,225.37
2022-11-13T02:29:23.810Z,200.57
2022-11-13T02:31:51.753Z,146.33
2022-11-13T02:34:19.377Z,257.10
2022-11-13T02:36:47.273Z,294.20
2022-11-13T02:39:15.138Z,349.13
2022-11-13T02:41:43.006Z,237.13
2022-11-13T02:44:11.925Z,112.00
2022-11-13T02:46:39.493Z,219.90
2022-11-13T02:49:07.624Z,236.97
2022-11-13T02:51:35.210Z,120.80
2022-11-13T02:54:02.895Z,149.50
2022-11-13T02:56:30.528Z,226.40
2022-11-13T02:58:58.192Z,243.43
2022-11-13T03:01:27.236Z,250.87
2022-11-13T03:03:58.571Z,131.70
2022-11-13T03:06:26.409Z,231.70
2022-11-13T03:08:54.004Z,429.07
2022-11-13T03:11:21.566Z,197.30
2022-11-13T03:13:49.131Z,280.37
2022-11-13T03:16:17.715Z,159.40
2022-11-13T03:18:46.616Z,292.60
2022-11-13T03:21:16.089Z,243.03
2022-11-13T03:23:44.958Z,253.93
2022-11-13T03:26:13.734Z,259.80
2022-11-13T03:28:41.389Z,224.47
2022-11-13T03:31:09.291Z,292.93
2022-11-13T03:33:36.918Z,245.20
2022-11-13T03:36:06.640Z,262.53
2022-11-13T03:38:34.593Z,248.10
2022-11-13T03:41:02.221Z,154.77
2022-11-13T03:43:29.860Z,249.13
2022-11-13T03:45:57.428Z,354.57
2022-11-13T03:48:25.145Z,118.07
2022-11-13T03:50:55.136Z,156.93
2022-11-13T03:53:24.389Z,149.40
2022-11-13T03:55:52.441Z,174.37
2022-11-13T03:58:20.674Z,124.20
2022-11-13T04:00:49.264Z,182.03
2022-11-13T04:03:17.177Z,87.27
2022-11-13T04:05:44.728Z,134.83
2022-11-13T04:08:12.298Z,156.70
2022-11-13T04:10:41.513Z,68.67
2022-11-13T04:13:09.361Z,194.87
2022-11-13T04:15:36.943Z,114.43
2022-11-13T04:18:04.796Z,135.83
2022-11-13T04:20:32.488Z,76.20
2022-11-13T04:23:00.004Z,133.80
2022-11-13T04:25:28.107Z,60.57
2022-11-13T04:27:57.177Z,129.93
2022-11-13T04:30:24.892Z,119.60
2022-11-13T04:32:52.406Z,66.40
2022-11-13T04:35:20.223Z,71.17
2022-11-13T04:37:47.867Z,57.17
2022-11-13T04:40:15.721Z,74.63
2022-11-13T04:42:51.468Z,132.00
2022-11-13T04:45:21.964Z,87.83
2022-11-13T04:47:49.944Z,51.27
2022-11-13T04:50:18.138Z,57.83
2022-11-13T04:52:46.000Z,52.63
2022-11-13T04:55:13.980Z,98.27
2022-11-13T04:57:41.831Z,220.77
2022-11-13T05:00:10.674Z,194.30
2022-11-13T05:02:39.570Z,68.90
2022-11-13T05:05:07.770Z,80.63
2022-11-13T05:07:35.346Z,70.40
2022-11-13T05:10:03.005Z,40.77
2022-11-13T05:12:30.541Z,31.83
2022-11-13T05:14:58.114Z,29.57
2022-11-13T05:17:25.697Z,51.03
2022-11-13T05:19:54.657Z,11.20
2022-11-13T05:22:22.203Z,24.47
2022-11-13T05:24:49.730Z,17.57
2022-11-13T05:27:17.846Z,12.80
2022-11-13T05:29:45.702Z,13.63
2022-11-13T05:32:13.335Z,15.67
2022-11-13T05:34:40.959Z,10.80
2022-11-13T05:37:09.886Z,56.50
2022-11-13T05:39:37.469Z,22.60
2022-11-13T05:42:05.632Z,11.83
2022-11-13T05:44:33.205Z,11.87
2022-11-13T05:47:00.822Z,11.33
2022-11-13T05:49:28.442Z,11.47
2022-11-13T05:51:56.258Z,9.97
2022-11-13T05:54:25.149Z,9.90
2022-11-13T05:56:52.717Z,9.80
2022-11-13T05:59:20.285Z,35.80
2022-11-13T06:01:47.855Z,17.37
2022-11-13T06:04:15.427Z,12.93
2022-11-13T06:06:43.357Z,12.90
2022-11-13T06:09:11.301Z,11.27
2022-11-13T06:11:40.191Z,11.70
2022-11-13T06:14:07.766Z,9.63
2022-11-13T06:16:37.084Z,12.73
2022-11-13T06:19:07.114Z,11.77
2022-11-13T06:21:36.133Z,11.63
2022-11-13T06:24:03.742Z,13.97
2022-11-13T06:26:33.090Z,14.00
2022-11-13T06:29:03.186Z,11.30
2022-11-13T06:31:32.978Z,10.77
2022-11-13T06:34:00.984Z,23.30
2022-11-13T06:36:30.198Z,17.83
2022-11-13T06:38:57.974Z,13.97
2022-11-13T06:41:29.290Z,75.30
2022-11-13T06:44:01.241Z,84.17
2022-11-13T06:46:32.029Z,25.43
2022-11-13T06:49:00.039Z,15.20
2022-11-13T06:51:30.717Z,28.80
2022-11-13T06:53:59.096Z,73.60
2022-11-13T06:56:26.799Z,95.13
2022-11-13T06:58:55.001Z,178.03
2022-11-13T07:01:24.735Z,19.23
2022-11-13T07:03:53.712Z,124.70
2022-11-13T07:06:23.142Z,79.47
2022-11-13T07:08:50.981Z,34.43
2022-11-13T07:11:20.633Z,75.63
2022-11-13T07:13:48.327Z,73.17
2022-11-13T07:16:18.232Z,75.50
2022-11-13T07:18:50.566Z,81.67
2022-11-13T07:21:19.949Z,36.07
2022-11-13T07:23:48.940Z,111.97
2022-11-13T07:26:16.548Z,31.27
2022-11-13T07:28:44.085Z,41.53
2022-11-13T07:31:13.323Z,47.53
2022-11-13T07:33:41.092Z,34.60
2022-11-13T07:36:11.094Z,69.53
2022-11-13T07:38:39.962Z,160.50
2022-11-13T07:41:07.758Z,52.73
2022-11-13T07:43:36.280Z,31.70
2022-11-13T07:46:03.975Z,18.53
2022-11-13T07:48:31.943Z,14.03
2022-11-13T07:51:01.106Z,9.53
2022-11-13T07:53:28.718Z,10.73
2022-11-13T07:55:57.603Z,11.20
2022-11-13T07:58:25.267Z,11.83
2022-11-13T08:00:52.887Z,13.23
2022-11-13T08:03:20.442Z,8.23
2022-11-13T08:05:47.953Z,8.93
2022-11-13T08:08:16.209Z,13.57
2022-11-13T08:10:43.952Z,9.73
2022-11-13T08:13:12.833Z,11.37
2022-11-13T08:15:40.388Z,9.60
2022-11-13T08:18:08.084Z,7.90
2022-11-13T08:20:35.703Z,7.53
2022-11-13T08:23:05.235Z,7.97
2022-11-13T08:25:33.811Z,7.57
2022-11-13T08:28:01.507Z,9.33
2022-11-13T08:30:30.408Z,8.77
2022-11-13T08:32:58.003Z,8.77
2022-11-13T08:35:29.366Z,9.33
2022-11-13T08:38:02.533Z,20.10
2022-11-13T08:40:30.340Z,21.07
2022-11-13T08:42:59.906Z,17.33
2022-11-13T08:45:27.651Z,13.83
2022-11-13T08:48:00.475Z,10.93
2022-11-13T08:50:28.936Z,10.10
2022-11-13T08:52:56.614Z,8.77
2022-11-13T08:55:24.742Z,8.00
2022-11-13T08:57:52.480Z,8.73
2022-11-13T09:00:20.598Z,8.87
2022-11-13T09:02:48.158Z,8.83
2022-11-13T09:05:17.220Z,8.10
2022-11-13T09:07:44.730Z,9.23
2022-11-13T09:10:13.029Z,10.57
2022-11-13T09:12:40.603Z,10.47
2022-11-13T09:15:09.230Z,10.30
2022-11-13T09:17:36.815Z,9.03
2022-11-13T09:20:09.981Z,10.57
2022-11-13T09:22:42.391Z,11.47
2022-11-13T09:25:10.602Z,17.07
2022-11-13T09:27:38.137Z,11.07
2022-11-13T09:30:06.670Z,9.40
2022-11-13T09:32:34.225Z,10.83
2022-11-13T09:35:01.794Z,9.00
2022-11-13T09:37:32.495Z,8.13
2022-11-13T09:40:01.387Z,7.57
2022-11-13T09:42:30.172Z,9.73
2022-11-13T09:45:01.540Z,10.30
2022-11-13T09:47:31.633Z,8.63
2022-11-13T09:50:02.230Z,7.20
2022-11-13T09:52:33.953Z,8.00
2022-11-13T09:55:04.287Z,7.27
2022-11-13T09:57:36.822Z,7.90
2022-11-13T10:00:07.823Z,9.17
2022-11-13T10:02:46.779Z,7.53
2022-11-13T10:05:22.540Z,9.50
2022-11-13T10:07:56.711Z,7.43
2022-11-13T10:10:55.120Z,8.70
2022-11-13T10:13:26.810Z,6.90
2022-11-13T10:16:07.333Z,7.40
2022-11-13T10:18:37.197Z,8.20
2022-11-13T10:21:11.255Z,9.23
2022-11-13T10:23:39.511Z,8.53
2022-11-13T10:26:14.888Z,7.03
2022-11-13T10:28:50.612Z,6.40
2022-11-13T10:31:19.266Z,6.70
2022-11-13T10:33:46.915Z,6.77
2022-11-13T10:36:25.602Z,7.37
2022-11-13T10:38:57.202Z,6.97
2022-11-13T10:41:26.077Z,5.33
2022-11-13T10:44:02.766Z,4.97
2022-11-13T10:46:31.910Z,5.37
2022-11-13T10:48:59.926Z,6.70
2022-11-13T10:51:29.558Z,6.67
2022-11-13T10:53:58.362Z,6.17
2022-11-13T10:56:30.417Z,5.30
2022-11-13T10:59:02.934Z,5.47
2022-11-13T11:01:30.783Z,6.30
2022-11-13T11:03:58.668Z,8.00
2022-11-13T11:07:04.340Z,6.10
2022-11-13T11:09:24.879Z,7.37
2022-11-13T11:12:19.666Z,6.47
2022-11-13T11:15:10.979Z,5.67
2022-11-13T11:17:43.694Z,7.57
2022-11-13T11:20:23.442Z,5.50
2022-11-13T11:22:54.424Z,5.73
2022-11-13T11:25:31.342Z,5.10
2022-11-13T11:28:06.582Z,4.37
2022-11-13T11:30:40.321Z,4.70
2022-11-13T11:33:15.485Z,5.03
2022-11-13T11:35:46.997Z,5.83
2022-11-13T11:38:20.461Z,5.73
2022-11-13T11:40:51.880Z,6.87
2022-11-13T11:43:26.641Z,5.50
2022-11-13T11:45:56.138Z,8.23
2022-11-13T11:48:33.056Z,5.73
2022-11-13T11:51:05.905Z,7.67
2022-11-13T11:53:40.476Z,8.97
2022-11-13T11:56:24.578Z,5.37
2022-11-13T11:59:11.181Z,5.60
2022-11-13T12:01:52.378Z,5.73
2022-11-13T12:04:33.088Z,5.50
2022-11-13T12:07:09.850Z,4.80
2022-11-13T12:09:39.924Z,4.13
2022-11-13T12:12:14.117Z,7.23
2022-11-13T12:14:49.442Z,4.93
2022-11-13T12:17:28.383Z,4.80
2022-11-13T12:20:01.974Z,10.40
2022-11-13T12:22:39.349Z,4.00
2022-11-13T12:25:17.125Z,6.40
2022-11-13T12:27:48.728Z,4.33
2022-11-13T12:30:20.140Z,5.73
2022-11-13T12:33:06.284Z,4.23
2022-11-13T12:35:33.852Z,5.67
2022-11-13T12:38:04.401Z,4.30
2022-11-13T12:40:41.204Z,4.40
2022-11-13T12:43:28.629Z,4.60
2022-11-13T12:45:59.840Z,5.60
2022-11-13T12:48:33.648Z,5.53
2022-11-13T12:51:02.868Z,4.20
2022-11-13T12:53:32.583Z,3.60
2022-11-13T12:56:02.114Z,5.63
2022-11-13T12:58:31.725Z,4.27
2022-11-13T13:01:04.369Z,4.80
2022-11-13T13:03:57.960Z,5.83
2022-11-13T13:06:39.975Z,4.27
2022-11-13T13:09:26.606Z,4.07
2022-11-13T13:12:01.779Z,4.10
2022-11-13T13:15:00.034Z,3.57
2022-11-13T13:17:28.926Z,3.57
2022-11-13T13:20:00.696Z,4.77
2022-11-13T13:22:30.458Z,5.50
2022-11-13T13:25:03.206Z,3.40
2022-11-13T13:27:34.372Z,3.27
2022-11-13T13:30:02.100Z,3.87
2022-11-13T13:32:39.154Z,3.50
2022-11-13T13:35:13.641Z,4.43
2022-11-13T13:37:45.474Z,5.53
2022-11-13T13:40:22.107Z,4.50
2022-11-13T13:43:06.488Z,3.50
2022-11-13T13:45:41.486Z,6.57
2022-11-13T13:48:12.451Z,3.97
2022-11-13T13:50:43.222Z,4.23
2022-11-13T13:53:13.494Z,4.40
2022-11-13T13:55:46.542Z,6.10
2022-11-13T13:58:16.713Z,5.23
2022-11-13T14:01:05.168Z,4.23
2022-11-13T14:03:33.496Z,3.00
2022-11-13T14:06:10.113Z,3.80
2022-11-13T14:08:37.640Z,3.23
2022-11-13T14:11:17.856Z,3.10
2022-11-13T14:13:45.411Z,2.67
2022-11-13T14:16:13.976Z,2.93
2022-11-13T14:18:42.883Z,3.60
2022-11-13T14:21:15.981Z,2.97
2022-11-13T14:23:45.895Z,3.83
2022-11-13T14:26:13.614Z,4.13
2022-11-13T14:28:52.358Z,3.23
2022-11-13T14:31:21.193Z,5.17
2022-11-13T14:33:50.946Z,3.83
2022-11-13T14:36:27.085Z,4.37
2022-11-13T14:38:55.006Z,2.83
2022-11-13T14:41:25.569Z,4.00
2022-11-13T14:43:54.331Z,3.03
2022-11-13T14:46:28.921Z,8.07
2022-11-13T14:48:58.280Z,5.30
2022-11-13T14:51:27.340Z,4.97
2022-11-13T14:53:59.658Z,5.90
2022-11-13T14:56:35.291Z,5.23
2022-11-13T14:59:11.666Z,5.37
2022-11-13T15:01:42.153Z,7.00
2022-11-13T15:04:11.092Z,7.90
2022-11-13T15:06:40.867Z,6.53
2022-11-13T15:09:13.256Z,6.33
2022-11-13T15:11:40.812Z,7.13
2022-11-13T15:14:11.834Z,5.03
2022-11-13T15:16:39.603Z,6.47
2022-11-13T15:19:20.744Z,4.90
2022-11-13T15:22:20.377Z,6.07
2022-11-13T15:24:36.287Z,4.33
2022-11-13T15:27:04.334Z,6.33
2022-11-13T15:29:31.897Z,5.90
2022-11-13T15:31:59.655Z,4.73
2022-11-13T15:34:29.177Z,5.03
2022-11-13T15:36:57.281Z,4.47
2022-11-13T15:39:25.372Z,5.43
2022-11-13T15:41:58.436Z,5.33
2022-11-13T15:44:26.613Z,5.57
2022-11-13T15:46:54.271Z,5.80
2022-11-13T15:49:22.465Z,6.50
2022-11-13T15:51:52.102Z,5.43
2022-11-13T15:54:26.059Z,7.23
2022-11-13T15:56:54.316Z,6.63
2022-11-13T15:59:22.323Z,6.47
2022-11-13T16:01:53.992Z,6.60
2022-11-13T16:04:26.694Z,6.13
2022-11-13T16:07:13.065Z,6.67
2022-11-13T16:09:40.644Z,5.20
2022-11-13T16:12:10.514Z,5.67
2022-11-13T16:14:38.679Z,4.87
2022-11-13T16:17:07.454Z,5.13
2022-11-13T16:19:35.007Z,4.70
2022-11-13T16:22:02.674Z,5.00
2022-11-13T16:24:31.703Z,8.40
2022-11-13T16:27:00.881Z,6.07
2022-11-13T16:29:30.491Z,5.93
2022-11-13T16:31:58.077Z,4.87
2022-11-13T16:34:25.727Z,4.47
2022-11-13T16:36:53.295Z,4.90
2022-11-13T16:39:20.934Z,5.80
2022-11-13T16:41:50.010Z,8.90
2022-11-13T16:44:17.674Z,5.17
2022-11-13T16:46:47.787Z,7.80
2022-11-13T16:49:18.968Z,5.70
2022-11-13T16:51:46.987Z,5.83
2022-11-13T16:54:14.954Z,8.07
2022-11-13T16:56:42.655Z,7.03
2022-11-13T16:59:12.544Z,8.03
2022-11-13T17:01:40.575Z,6.90
2022-11-13T17:04:08.279Z,7.00
2022-11-13T17:06:37.137Z,6.47
2022-11-13T17:09:05.432Z,6.87
2022-11-13T17:11:33.677Z,6.57
2022-11-13T17:14:02.440Z,9.17
2022-11-13T17:16:32.407Z,6.83
2022-11-13T17:19:00.749Z,11.30
2022-11-13T17:21:29.948Z,6.77
2022-11-13T17:23:58.106Z,9.07
2022-11-13T17:26:26.476Z,8.53
2022-11-13T17:28:54.442Z,7.27
2022-11-13T17:31:22.804Z,6.80
2022-11-13T17:33:53.175Z,8.00
2022-11-13T17:36:21.027Z,8.73
2022-11-13T17:38:48.666Z,9.60
2022-11-13T17:41:17.408Z,10.30
2022-11-13T17:43:45.378Z,9.30
2022-11-13T17:46:14.266Z,7.17
2022-11-13T17:48:42.602Z,6.53
2022-11-13T17:51:13.925Z,8.97
2022-11-13T17:53:41.908Z,9.80
2022-11-13T17:56:11.612Z,10.50
2022-11-13T17:58:40.724Z,11.13
2022-11-13T18:01:10.230Z,10.40
2022-11-13T18:03:38.016Z,7.90
2022-11-13T18:06:07.470Z,10.53
2022-11-13T18:08:38.829Z,8.47
2022-11-13T18:11:11.157Z,10.97
2022-11-13T18:13:39.303Z,11.77
2022-11-13T18:16:08.268Z,7.00
2022-11-13T18:18:36.233Z,6.57
2022-11-13T18:21:22.351Z,5.83
2022-11-13T18:23:57.634Z,9.50
2022-11-13T18:26:25.650Z,6.63
2022-11-13T18:28:53.303Z,8.83
2022-11-13T18:31:21.895Z,6.43
2022-11-13T18:33:49.596Z,6.33
2022-11-13T18:36:17.342Z,5.70
2022-11-13T18:38:45.129Z,14.63
2022-11-13T18:41:15.499Z,28.73
2022-11-13T18:43:44.252Z,16.03
2022-11-13T18:46:12.819Z,9.07
2022-11-13T18:48:41.915Z,8.67
2022-11-13T18:51:13.475Z,10.37
2022-11-13T18:53:41.385Z,12.30
2022-11-13T18:56:12.956Z,9.43
2022-11-13T18:58:43.360Z,7.23
2022-11-13T19:01:14.124Z,6.47
2022-11-13T19:04:08.172Z,7.87
2022-11-13T19:06:32.041Z,8.27
2022-11-13T19:09:00.816Z,6.43
2022-11-13T19:11:29.826Z,6.77
2022-11-13T19:13:58.972Z,6.00
2022-11-13T19:16:28.228Z,6.47
2022-11-13T19:18:57.549Z,6.03
2022-11-13T19:21:27.433Z,5.57
2022-11-13T19:23:55.340Z,6.27
2022-11-13T19:26:22.982Z,9.90
2022-11-13T19:28:51.717Z,8.57
2022-11-13T19:31:21.989Z,7.43
2022-11-13T19:33:55.066Z,6.73
2022-11-13T19:36:24.747Z,6.33
2022-11-13T19:38:53.293Z,8.60
2022-11-13T19:41:21.328Z,7.33
2022-11-13T19:43:49.000Z,6.97
2022-11-13T19:46:18.367Z,6.07
2022-11-13T19:48:48.804Z,7.90
2022-11-13T19:51:18.544Z,6.70
2022-11-13T19:53:47.082Z,7.37
2022-11-13T19:56:15.643Z,6.47
2022-11-13T19:58:44.466Z,5.97
2022-11-13T20:01:13.098Z,10.23
2022-11-13T20:03:41.247Z,6.80
2022-11-13T20:06:11.527Z,7.80
2022-11-13T20:08:39.388Z,7.00
2022-11-13T20:11:10.088Z,8.33
2022-11-13T20:13:38.725Z,9.00
2022-11-13T20:16:08.971Z,7.30
2022-11-13T20:18:37.012Z,7.00
2022-11-13T20:21:05.676Z,6.37
2022-11-13T20:23:35.288Z,6.80
2022-11-13T20:26:04.653Z,7.57
2022-11-13T20:28:32.638Z,7.03
2022-11-13T20:31:04.267Z,6.43
2022-11-13T20:33:32.977Z,8.23
2022-11-13T20:36:00.637Z,7.37
2022-11-13T20:38:29.360Z,5.97
2022-11-13T20:40:58.513Z,6.60
2022-11-13T20:43:26.118Z,6.90
2022-11-13T20:46:02.292Z,6.27
2022-11-13T20:48:30.705Z,6.47
2022-11-13T20:50:58.520Z,6.73
2022-11-13T20:53:26.114Z,7.27
2022-11-13T20:55:53.744Z,6.90
2022-11-13T20:58:22.784Z,5.80
2022-11-13T21:00:50.472Z,6.63
2022-11-13T21:03:18.148Z,6.93
2022-11-13T21:05:45.771Z,7.23
2022-11-13T21:08:13.568Z,7.67
2022-11-13T21:10:41.877Z,9.60
2022-11-13T21:13:09.421Z,9.67
2022-11-13T21:15:39.728Z,9.13
2022-11-13T21:18:07.580Z,5.70
2022-11-13T21:20:35.802Z,6.80
2022-11-13T21:23:03.388Z,5.63
2022-11-13T21:25:31.688Z,7.37
2022-11-13T21:27:59.316Z,5.53
2022-11-13T21:30:27.031Z,6.63
2022-11-13T21:32:56.002Z,22.23
2022-11-13T21:35:23.718Z,8.07
2022-11-13T21:37:51.352Z,6.53
2022-11-13T21:40:19.059Z,7.70
2022-11-13T21:42:47.273Z,7.23
2022-11-13T21:45:15.097Z,6.37
2022-11-13T21:47:43.314Z,7.10
2022-11-13T21:50:12.766Z,7.37
2022-11-13T21:52:40.440Z,8.40
2022-11-13T21:55:10.012Z,5.90
2022-11-13T21:57:37.602Z,6.73
2022-11-13T22:00:06.106Z,10.87
2022-11-13T22:02:33.925Z,7.53
2022-11-13T22:05:01.543Z,7.80
2022-11-13T22:07:30.705Z,7.27
2022-11-13T22:09:58.304Z,8.13
2022-11-13T22:12:25.926Z,7.53
2022-11-13T22:14:53.485Z,6.57
2022-11-13T22:17:21.094Z,7.27
2022-11-13T22:19:48.819Z,11.50
2022-11-13T22:22:16.570Z,6.73
2022-11-13T22:24:45.516Z,6.53
2022-11-13T22:27:13.262Z,9.47
2022-11-13T22:29:40.893Z,8.90
2022-11-13T22:32:08.496Z,6.80
2022-11-13T22:34:36.164Z,6.67
2022-11-13T22:37:03.731Z,7.07
2022-11-13T22:39:31.964Z,8.63
2022-11-13T22:42:00.966Z,6.33
2022-11-13T22:44:45.467Z,6.33
2022-11-13T22:47:16.102Z,7.87
2022-11-13T22:49:43.806Z,9.77
2022-11-13T22:52:11.542Z,7.73
2022-11-13T22:54:39.235Z,7.77
2022-11-13T22:57:08.165Z,6.53
2022-11-13T22:59:35.804Z,10.70
2022-11-13T23:02:03.458Z,7.07
2022-11-13T23:04:31.024Z,8.43
2022-11-13T23:06:58.654Z,7.57
2022-11-13T23:09:27.093Z,7.87
2022-11-13T23:11:54.714Z,7.03
2022-11-13T23:14:23.943Z,8.37
2022-11-13T23:16:51.494Z,7.30
2022-11-13T23:19:19.133Z,8.47
2022-11-13T23:21:47.025Z,8.67
2022-11-13T23:24:14.763Z,6.80
2022-11-13T23:26:42.528Z,8.10
2022-11-13T23:29:11.125Z,7.23
2022-11-13T23:31:40.336Z,6.60
2022-11-13T23:34:08.105Z,8.30
2022-11-13T23:36:35.899Z,8.33
2022-11-13T23:39:03.710Z,7.73
2022-11-13T23:41:31.294Z,7.53
2022-11-13T23:44:14.083Z,7.50
2022-11-13T23:46:43.093Z,7.10
2022-11-13T23:49:10.793Z,7.60
2022-11-13T23:51:38.596Z,9.07
2022-11-13T23:54:06.258Z,8.00
2022-11-13T23:56:33.832Z,6.43
2022-11-13T23:59:01.507Z,6.83
